Time;durP1;ratioP1;P1;durP2;ratioP2;P2;SDS_P1;SDS_P2;PMS_P1;PMS_P2;Temp;Humidity;BMP_temperature;BMP_pressure;BME280_temperature;BME280_humidity;BME280_pressure;Samples;Min_cycle;Max_cycle;Signal;HPM_P1;HPM_P2
2023/08/21 00:00:05;;;;;;;7.15;5.85;;;;;;;;;;4930339;29;20466;-70
2023/08/21 00:02:33;;;;;;;6.55;5.70;;;;;;;;;;4930315;29;20367;-71
2023/08/21 00:05:01;;;;;;;7.13;6.53;;;;;;;;;;4919364;29;20487;-72
2023/08/21 00:07:29;;;;;;;6.38;5.80;;;;;;;;;;4912265;29;20047;-71
2023/08/21 00:09:57;;;;;;;6.30;5.72;;;;;;;;;;4966007;23;20071;-80
2023/08/21 00:12:25;;;;;;;6.10;5.60;;;;;;;;;;4936700;29;20099;-80
2023/08/21 00:14:52;;;;;;;8.20;6.30;;;;;;;;;;4935566;29;20048;-81
2023/08/21 00:17:20;;;;;;;5.85;5.30;;;;;;;;;;4932747;29;20067;-80
2023/08/21 00:19:47;;;;;;;7.32;5.25;;;;;;;;;;4934411;29;20171;-80
2023/08/21 00:22:14;;;;;;;6.57;5.70;;;;;;;;;;4936919;29;20040;-80
2023/08/21 00:24:42;;;;;;;6.22;5.60;;;;;;;;;;4938152;29;20047;-80
2023/08/21 00:27:09;;;;;;;6.93;6.15;;;;;;;;;;4936886;29;20051;-80
2023/08/21 00:29:37;;;;;;;6.68;5.40;;;;;;;;;;4920719;29;20102;-80
2023/08/21 00:32:06;;;;;;;8.55;5.60;;;;;;;;;;4923286;29;20561;-80
2023/08/21 00:34:34;;;;;;;6.50;5.90;;;;;;;;;;4916762;29;20275;-80
2023/08/21 00:37:01;;;;;;;5.85;5.45;;;;;;;;;;4928919;29;20187;-81
2023/08/21 00:39:28;;;;;;;6.40;5.80;;;;;;;;;;4918229;29;20046;-80
2023/08/21 00:41:56;;;;;;;5.72;5.32;;;;;;;;;;4935064;29;20047;-80
2023/08/21 00:44:23;;;;;;;5.55;5.15;;;;;;;;;;4911293;29;20079;-80
2023/08/21 00:46:51;;;;;;;5.93;5.43;;;;;;;;;;4923135;29;20640;-80
2023/08/21 00:49:18;;;;;;;5.75;5.25;;;;;;;;;;4939193;29;20055;-80
2023/08/21 00:51:46;;;;;;;5.57;5.13;;;;;;;;;;4925363;29;20115;-80
2023/08/21 00:54:13;;;;;;;6.05;5.25;;;;;;;;;;4922557;29;20059;-79
2023/08/21 00:56:41;;;;;;;4.95;4.65;;;;;;;;;;4920330;29;20048;-80
2023/08/21 00:59:09;;;;;;;5.68;5.20;;;;;;;;;;4930240;29;20067;-80
2023/08/21 01:01:37;;;;;;;5.63;5.20;;;;;;;;;;4921821;29;20052;-80
2023/08/21 01:04:05;;;;;;;6.55;5.90;;;;;;;;;;4929257;29;20051;-80
2023/08/21 01:06:32;;;;;;;7.28;5.80;;;;;;;;;;4924392;29;20052;-80
2023/08/21 01:09:09;;;;;;;5.82;5.43;;;;;;;;;;4933792;29;20059;-80
2023/08/21 01:11:36;;;;;;;6.55;6.05;;;;;;;;;;4932336;29;20281;-80
2023/08/21 01:14:11;;;;;;;6.45;5.95;;;;;;;;;;4920849;29;20075;-80
2023/08/21 01:16:39;;;;;;;6.18;5.57;;;;;;;;;;4930255;29;20205;-80
2023/08/21 01:19:10;;;;;;;9.48;6.32;;;;;;;;;;4915190;29;20099;-81
2023/08/21 01:21:38;;;;;;;9.52;5.75;;;;;;;;;;4918352;29;20268;-81
2023/08/21 01:24:05;;;;;;;6.30;5.70;;;;;;;;;;4914564;29;20514;-81
2023/08/21 01:26:32;;;;;;;5.97;5.45;;;;;;;;;;4929605;29;20107;-81
2023/08/21 01:29:00;;;;;;;6.00;5.47;;;;;;;;;;4914705;29;20059;-81
2023/08/21 01:31:31;;;;;;;6.38;5.78;;;;;;;;;;4929630;29;20058;-81
2023/08/21 01:33:59;;;;;;;;;;;;;;;;;;4924842;29;20051;-81
2023/08/21 01:36:29;;;;;;;6.28;5.78;;;;;;;;;;4909233;29;19930;-81
2023/08/21 01:38:56;;;;;;;7.15;6.20;;;;;;;;;;4929547;29;20067;-81
2023/08/21 01:41:24;;;;;;;7.20;6.15;;;;;;;;;;4919298;29;20079;-81
2023/08/21 01:43:54;;;;;;;10.32;5.57;;;;;;;;;;4918932;29;20050;-80
2023/08/21 01:46:21;;;;;;;7.45;5.60;;;;;;;;;;4914143;29;20047;-84
2023/08/21 01:48:48;;;;;;;6.50;5.90;;;;;;;;;;4927559;29;20052;-82
2023/08/21 01:51:16;;;;;;;7.50;5.70;;;;;;;;;;4932328;29;20048;-81
2023/08/21 01:53:44;;;;;;;6.13;5.63;;;;;;;;;;4915961;29;20052;-81
2023/08/21 01:56:12;;;;;;;6.65;5.55;;;;;;;;;;4933367;29;20054;-84
2023/08/21 01:58:39;;;;;;;6.65;5.43;;;;;;;;;;4930251;29;20048;-85
2023/08/21 02:01:07;;;;;;;5.95;5.40;;;;;;;;;;4916529;29;20050;-83
2023/08/21 02:03:34;;;;;;;5.88;5.32;;;;;;;;;;4912429;29;20484;-81
2023/08/21 02:06:02;;;;;;;8.38;5.78;;;;;;;;;;4930207;29;20051;-85
2023/08/21 02:08:33;;;;;;;6.20;5.63;;;;;;;;;;4911876;29;20052;-81
2023/08/21 02:11:01;;;;;;;6.32;5.72;;;;;;;;;;4917461;29;20047;-82
2023/08/21 02:13:29;;;;;;;6.47;4.95;;;;;;;;;;4924375;29;20099;-81
2023/08/21 02:15:56;;;;;;;5.90;5.30;;;;;;;;;;4931199;29;20131;-84
2023/08/21 02:18:24;;;;;;;7.57;5.82;;;;;;;;;;4933214;29;20043;-81
2023/08/21 02:20:51;;;;;;;6.38;5.80;;;;;;;;;;4921786;29;20538;-81
2023/08/21 02:23:19;;;;;;;6.03;5.60;;;;;;;;;;4931192;29;20040;-85
2023/08/21 02:25:48;;;;;;;5.70;5.30;;;;;;;;;;4947246;29;20549;-81
2023/08/21 02:28:16;;;;;;;6.38;5.30;;;;;;;;;;4942551;29;20070;-81
2023/08/21 02:30:44;;;;;;;5.82;5.43;;;;;;;;;;4916535;29;20056;-83
2023/08/21 02:33:11;;;;;;;6.50;5.82;;;;;;;;;;4929913;29;20052;-86
2023/08/21 02:35:39;;;;;;;6.10;5.68;;;;;;;;;;4928855;29;20063;-81
2023/08/21 02:38:06;;;;;;;6.22;5.55;;;;;;;;;;4920969;29;20501;-81
2023/08/21 02:40:36;;;;;;;6.65;6.00;;;;;;;;;;4913231;29;20123;-79
2023/08/21 02:43:04;;;;;;;6.45;5.70;;;;;;;;;;4924883;29;20459;-80
2023/08/21 02:45:31;;;;;;;6.15;5.55;;;;;;;;;;4931372;29;20521;-80
2023/08/21 02:47:59;;;;;;;6.00;5.60;;;;;;;;;;4934045;29;20128;-80
2023/08/21 02:50:26;;;;;;;6.30;5.80;;;;;;;;;;4930967;29;20354;-80
2023/08/21 02:52:54;;;;;;;6.22;5.75;;;;;;;;;;4926145;29;20044;-80
2023/08/21 02:55:21;;;;;;;6.53;5.85;;;;;;;;;;4916776;29;20506;-81
2023/08/21 02:57:49;;;;;;;6.32;5.85;;;;;;;;;;4932588;29;20054;-79
2023/08/21 03:00:16;;;;;;;6.57;6.07;;;;;;;;;;4923340;29;20296;-80
2023/08/21 03:02:44;;;;;;;6.47;5.65;;;;;;;;;;4931547;29;20044;-80
2023/08/21 03:05:13;;;;;;;5.57;5.18;;;;;;;;;;4932792;29;20047;-76
2023/08/21 03:07:40;;;;;;;5.68;5.20;;;;;;;;;;4915840;29;20059;-80
2023/08/21 03:10:08;;;;;;;5.90;5.40;;;;;;;;;;4915741;29;20047;-84
2023/08/21 03:12:35;;;;;;;6.15;5.63;;;;;;;;;;4931711;29;20684;-80
2023/08/21 03:15:04;;;;;;;6.32;5.82;;;;;;;;;;4930749;29;20059;-80
2023/08/21 03:17:31;;;;;;;5.75;5.18;;;;;;;;;;4931567;29;20155;-81
2023/08/21 03:19:59;;;;;;;6.28;5.68;;;;;;;;;;4925288;29;20277;-81
2023/08/21 03:22:27;;;;;;;7.07;5.95;;;;;;;;;;4914521;29;20112;-81
2023/08/21 03:24:54;;;;;;;6.90;5.70;;;;;;;;;;4921678;29;20043;-81
2023/08/21 03:27:22;;;;;;;6.22;5.72;;;;;;;;;;4919554;29;20051;-80
2023/08/21 03:29:51;;;;;;;6.03;5.43;;;;;;;;;;4903201;29;20051;-81
2023/08/21 03:32:19;;;;;;;6.15;5.65;;;;;;;;;;4932090;29;20047;-80
2023/08/21 03:34:47;;;;;;;6.22;5.68;;;;;;;;;;4919582;29;20549;-80
2023/08/21 03:37:14;;;;;;;10.02;6.32;;;;;;;;;;4920968;29;20043;-80
2023/08/21 03:39:42;;;;;;;7.47;5.97;;;;;;;;;;4933614;29;20043;-80
2023/08/21 03:42:11;;;;;;;5.97;5.38;;;;;;;;;;4919007;29;20044;-80
2023/08/21 03:44:40;;;;;;;6.60;6.00;;;;;;;;;;4917703;29;20308;-80
2023/08/21 03:47:07;;;;;;;6.40;5.90;;;;;;;;;;4916495;29;20415;-80
2023/08/21 03:49:44;;;;;;;6.18;5.68;;;;;;;;;;4922735;29;20055;-80
2023/08/21 03:52:11;;;;;;;6.65;6.05;;;;;;;;;;4918624;29;20466;-80
2023/08/21 03:54:38;;;;;;;6.97;6.35;;;;;;;;;;4917899;29;20040;-80
2023/08/21 03:57:07;;;;;;;6.70;5.70;;;;;;;;;;4935787;29;20092;-80
2023/08/21 03:59:34;;;;;;;7.85;6.22;;;;;;;;;;4923766;29;20052;-81
2023/08/21 04:02:02;;;;;;;7.85;6.47;;;;;;;;;;4928215;29;20148;-79
2023/08/21 04:04:29;;;;;;;7.15;5.60;;;;;;;;;;4905937;29;20036;-79
2023/08/21 04:06:56;;;;;;;7.32;6.68;;;;;;;;;;4925991;29;20151;-80
2023/08/21 04:09:24;;;;;;;8.73;5.80;;;;;;;;;;4934461;29;20624;-80
2023/08/21 04:11:51;;;;;;;6.97;6.18;;;;;;;;;;4920175;29;20052;-79
2023/08/21 04:14:19;;;;;;;7.85;5.85;;;;;;;;;;4936112;29;20077;-79
2023/08/21 04:16:47;;;;;;;10.48;6.57;;;;;;;;;;4918074;29;20102;-80
2023/08/21 04:19:14;;;;;;;6.93;6.25;;;;;;;;;;4934037;29;20056;-80
2023/08/21 04:21:42;;;;;;;6.70;6.20;;;;;;;;;;4906436;29;20050;-80
2023/08/21 04:24:09;;;;;;;7.50;6.80;;;;;;;;;;4931794;29;20052;-80
2023/08/21 04:26:37;;;;;;;6.85;5.85;;;;;;;;;;4910922;29;20050;-79
2023/08/21 04:29:05;;;;;;;6.50;5.90;;;;;;;;;;4922888;29;20414;-79
2023/08/21 04:31:42;;;;;;;7.30;6.10;;;;;;;;;;4932014;29;20062;-80
2023/08/21 04:34:10;;;;;;;7.18;6.00;;;;;;;;;;4917989;29;20130;-81
2023/08/21 04:36:37;;;;;;;7.70;5.68;;;;;;;;;;4904505;29;20056;-80
2023/08/21 04:39:05;;;;;;;12.35;6.53;;;;;;;;;;4921509;29;20055;-81
2023/08/21 04:41:33;;;;;;;10.68;6.18;;;;;;;;;;4928650;29;20047;-81
2023/08/21 04:44:02;;;;;;;53.83;13.15;;;;;;;;;;4925858;29;20047;-80
2023/08/21 04:46:32;;;;;;;12.90;6.85;;;;;;;;;;4918220;29;20047;-81
2023/08/21 04:49:00;;;;;;;6.80;6.00;;;;;;;;;;4922000;29;20142;-80
2023/08/21 04:51:27;;;;;;;6.82;6.05;;;;;;;;;;4917829;29;20089;-80
2023/08/21 04:53:55;;;;;;;5.95;5.50;;;;;;;;;;4911998;29;20058;-80
2023/08/21 04:56:23;;;;;;;7.40;5.88;;;;;;;;;;4922977;29;20062;-80
2023/08/21 04:58:50;;;;;;;10.23;5.88;;;;;;;;;;4924482;29;20047;-80
2023/08/21 05:01:18;;;;;;;6.53;5.93;;;;;;;;;;4920672;29;20081;-80
2023/08/21 05:03:48;;;;;;;6.28;5.57;;;;;;;;;;4917271;29;20051;-81
2023/08/21 05:06:16;;;;;;;6.32;5.72;;;;;;;;;;4923152;29;20187;-85
2023/08/21 05:08:44;;;;;;;8.73;6.80;;;;;;;;;;4932154;29;20107;-84
2023/08/21 05:11:12;;;;;;;6.55;5.88;;;;;;;;;;4916096;29;20047;-80
2023/08/21 05:13:42;;;;;;;8.02;5.72;;;;;;;;;;4931696;29;20053;-79
2023/08/21 05:16:12;;;;;;;6.43;5.93;;;;;;;;;;4931278;29;20119;-80
2023/08/21 05:18:48;;;;;;;5.90;5.50;;;;;;;;;;4923245;29;20126;-80
2023/08/21 05:21:16;;;;;;;7.38;5.80;;;;;;;;;;4929707;29;20295;-81
2023/08/21 05:23:44;;;;;;;6.45;5.95;;;;;;;;;;4919105;29;20052;-81
2023/08/21 05:26:11;;;;;;;6.50;5.90;;;;;;;;;;4916765;29;20036;-80
2023/08/21 05:28:39;;;;;;;6.05;5.65;;;;;;;;;;4901914;29;20056;-81
2023/08/21 05:31:06;;;;;;;7.00;6.35;;;;;;;;;;4919949;29;20162;-81
2023/08/21 05:33:45;;;;;;;6.32;5.70;;;;;;;;;;4911547;29;20066;-80
2023/08/21 05:36:13;;;;;;;8.93;6.05;;;;;;;;;;4922125;29;20040;-80
2023/08/21 05:38:41;;;;;;;7.25;6.55;;;;;;;;;;4924442;29;20062;-81
2023/08/21 05:41:08;;;;;;;6.75;6.25;;;;;;;;;;4929110;29;20300;-81
2023/08/21 05:43:36;;;;;;;7.18;6.57;;;;;;;;;;4899837;29;20145;-81
2023/08/21 05:46:06;;;;;;;6.95;6.25;;;;;;;;;;4906551;29;20052;-80
2023/08/21 05:48:34;;;;;;;9.45;7.10;;;;;;;;;;4916292;29;20111;-81
2023/08/21 05:51:01;;;;;;;7.28;6.57;;;;;;;;;;4925778;29;20441;-81
2023/08/21 05:53:34;;;;;;;7.07;6.38;;;;;;;;;;4923528;29;20560;-84
2023/08/21 05:56:03;;;;;;;8.52;7.75;;;;;;;;;;4918589;29;20062;-81
2023/08/21 05:58:32;;;;;;;10.65;7.35;;;;;;;;;;4918739;29;20055;-80
2023/08/21 06:01:00;;;;;;;8.20;7.50;;;;;;;;;;4932068;29;20054;-80
2023/08/21 06:03:28;;;;;;;9.02;7.03;;;;;;;;;;4920812;29;20494;-81
2023/08/21 06:06:05;;;;;;;7.55;6.85;;;;;;;;;;4925623;29;20048;-77
2023/08/21 06:08:34;;;;;;;6.97;6.32;;;;;;;;;;4924515;29;20066;-80
2023/08/21 06:11:07;;;;;;;7.03;6.43;;;;;;;;;;4932500;29;20198;-80
2023/08/21 06:13:35;;;;;;;9.95;7.45;;;;;;;;;;4967519;23;20059;-84
2023/08/21 06:16:02;;;;;;;7.00;6.40;;;;;;;;;;4926429;28;20043;-84
2023/08/21 06:18:31;;;;;;;8.00;6.22;;;;;;;;;;4905661;29;20503;-83
2023/08/21 06:20:58;;;;;;;5.95;5.55;;;;;;;;;;4893004;29;20043;-84
2023/08/21 06:23:26;;;;;;;6.50;5.85;;;;;;;;;;4911632;29;20060;-84
2023/08/21 06:25:53;;;;;;;6.43;5.47;;;;;;;;;;4908153;29;20040;-84
2023/08/21 06:28:22;;;;;;;6.30;5.70;;;;;;;;;;4917650;29;20103;-83
2023/08/21 06:30:57;;;;;;;6.30;5.82;;;;;;;;;;4909916;29;20421;-84
2023/08/21 06:33:24;;;;;;;6.63;6.07;;;;;;;;;;4916526;29;20390;-83
2023/08/21 06:35:54;;;;;;;6.05;5.60;;;;;;;;;;4908030;29;20058;-84
2023/08/21 06:38:21;;;;;;;6.80;5.72;;;;;;;;;;4913143;29;20446;-84
2023/08/21 06:40:49;;;;;;;7.05;6.30;;;;;;;;;;4926661;29;20083;-83
2023/08/21 06:43:16;;;;;;;6.03;5.53;;;;;;;;;;4924944;29;20140;-85
2023/08/21 06:45:47;;;;;;;6.40;5.68;;;;;;;;;;4910820;29;20056;-84
2023/08/21 06:48:14;;;;;;;6.07;5.57;;;;;;;;;;4910508;29;20063;-84
2023/08/21 06:50:42;;;;;;;6.18;5.57;;;;;;;;;;4906835;29;20138;-84
2023/08/21 06:53:09;;;;;;;6.72;6.10;;;;;;;;;;4930770;29;20526;-84
2023/08/21 06:55:36;;;;;;;6.10;5.60;;;;;;;;;;4922212;29;20422;-85
2023/08/21 06:58:03;;;;;;;7.03;6.53;;;;;;;;;;4926500;29;20040;-84
2023/08/21 07:00:31;;;;;;;6.85;5.93;;;;;;;;;;4926740;29;20067;-84
2023/08/21 07:02:58;;;;;;;9.02;6.10;;;;;;;;;;4931879;29;20040;-84
2023/08/21 07:05:26;;;;;;;6.85;6.22;;;;;;;;;;4946495;29;20043;-84
2023/08/21 07:07:54;;;;;;;6.85;5.93;;;;;;;;;;4944510;29;20051;-83
2023/08/21 07:10:22;;;;;;;6.65;5.88;;;;;;;;;;4949140;29;20039;-83
2023/08/21 07:12:49;;;;;;;6.10;5.53;;;;;;;;;;4951139;29;20071;-84
2023/08/21 07:15:16;;;;;;;6.05;5.45;;;;;;;;;;4932734;29;20794;-84
2023/08/21 07:17:44;;;;;;;6.43;5.82;;;;;;;;;;4943514;29;20075;-84
2023/08/21 07:20:12;;;;;;;6.28;5.78;;;;;;;;;;4929806;29;20047;-87
2023/08/21 07:22:40;;;;;;;6.75;6.20;;;;;;;;;;4928487;29;20047;-83
2023/08/21 07:25:08;;;;;;;6.45;5.85;;;;;;;;;;4922498;29;20091;-84
2023/08/21 07:27:36;;;;;;;6.20;5.60;;;;;;;;;;4931394;29;20130;-85
2023/08/21 07:30:03;;;;;;;6.22;5.50;;;;;;;;;;4930176;29;20048;-84
2023/08/21 07:32:31;;;;;;;7.95;6.25;;;;;;;;;;4912314;29;20111;-86
2023/08/21 07:34:58;;;;;;;6.25;5.75;;;;;;;;;;4927830;29;20459;-84
2023/08/21 07:37:26;;;;;;;7.32;6.00;;;;;;;;;;4926405;29;20134;-85
2023/08/21 07:39:56;;;;;;;7.22;6.53;;;;;;;;;;4927486;29;20059;-85
2023/08/21 07:42:24;;;;;;;6.47;5.80;;;;;;;;;;4928881;29;20052;-85
2023/08/21 07:44:51;;;;;;;6.00;5.45;;;;;;;;;;4928199;29;20050;-85
2023/08/21 07:47:19;;;;;;;6.13;5.72;;;;;;;;;;4928680;29;20606;-85
2023/08/21 07:49:46;;;;;;;6.88;6.22;;;;;;;;;;4930454;29;20075;-86
2023/08/21 07:52:13;;;;;;;6.85;6.25;;;;;;;;;;4927477;29;20501;-85
2023/08/21 07:54:41;;;;;;;6.50;6.00;;;;;;;;;;4931647;29;20415;-85
2023/08/21 07:57:09;;;;;;;6.40;5.80;;;;;;;;;;4925088;29;20134;-86
2023/08/21 07:59:36;;;;;;;6.22;5.65;;;;;;;;;;4921249;29;20076;-85
2023/08/21 08:02:04;;;;;;;6.47;5.88;;;;;;;;;;4926891;29;20553;-84
2023/08/21 08:04:31;;;;;;;6.10;5.70;;;;;;;;;;4925336;29;20403;-83
2023/08/21 08:06:59;;;;;;;6.63;6.03;;;;;;;;;;4913286;29;20044;-84
2023/08/21 08:09:26;;;;;;;6.75;5.97;;;;;;;;;;4927460;29;20044;-84
2023/08/21 08:11:54;;;;;;;6.63;5.72;;;;;;;;;;4923757;29;20075;-83
2023/08/21 08:14:21;;;;;;;6.47;5.97;;;;;;;;;;4927674;29;20039;-83
2023/08/21 08:16:48;;;;;;;8.32;6.15;;;;;;;;;;4962688;23;20079;-70
2023/08/21 08:19:16;;;;;;;7.47;5.70;;;;;;;;;;4933151;29;20462;-70
2023/08/21 08:21:44;;;;;;;6.13;5.65;;;;;;;;;;4937357;28;20052;-70
2023/08/21 08:24:12;;;;;;;6.28;5.70;;;;;;;;;;4927451;29;20940;-70
2023/08/21 08:26:41;;;;;;;6.88;6.35;;;;;;;;;;4933729;28;20407;-69
2023/08/21 08:29:09;;;;;;;6.47;5.90;;;;;;;;;;4934562;28;20429;-69
2023/08/21 08:31:38;;;;;;;6.50;5.90;;;;;;;;;;4952305;28;20512;-71
2023/08/21 08:34:06;;;;;;;6.38;5.88;;;;;;;;;;4925794;29;20115;-71
2023/08/21 08:36:34;;;;;;;6.40;5.90;;;;;;;;;;4913349;28;20141;-70
2023/08/21 08:39:01;;;;;;;7.20;6.20;;;;;;;;;;4936699;28;20279;-70
2023/08/21 08:41:42;;;;;;;6.22;5.65;;;;;;;;;;4924457;28;20442;-70
2023/08/21 08:44:10;;;;;;;6.60;6.00;;;;;;;;;;4930901;28;20043;-69
2023/08/21 08:46:38;;;;;;;6.50;5.78;;;;;;;;;;4922839;28;20052;-69
2023/08/21 08:49:06;;;;;;;6.90;6.28;;;;;;;;;;4923510;28;20397;-70
2023/08/21 08:51:37;;;;;;;6.50;5.90;;;;;;;;;;4922710;28;20052;-69
2023/08/21 08:54:04;;;;;;;7.00;6.13;;;;;;;;;;4935640;28;20130;-70
2023/08/21 08:56:32;;;;;;;6.55;6.05;;;;;;;;;;4927267;28;20059;-70
2023/08/21 08:59:00;;;;;;;6.82;5.85;;;;;;;;;;4938540;28;20043;-71
2023/08/21 09:01:27;;;;;;;7.28;5.72;;;;;;;;;;4926119;29;20130;-70
2023/08/21 09:03:55;;;;;;;5.47;5.10;;;;;;;;;;4909466;29;20047;-70
2023/08/21 09:06:23;;;;;;;6.80;6.30;;;;;;;;;;4940306;29;20043;-70
2023/08/21 09:08:54;;;;;;;7.88;6.05;;;;;;;;;;4939332;28;20095;-70
2023/08/21 09:11:22;;;;;;;6.10;5.47;;;;;;;;;;4945771;29;20544;-70
2023/08/21 09:13:51;;;;;;;5.85;5.35;;;;;;;;;;4932378;29;20075;-70
2023/08/21 09:16:19;;;;;;;6.18;5.68;;;;;;;;;;4931347;28;20051;-70
2023/08/21 09:18:53;;;;;;;6.75;6.03;;;;;;;;;;4927415;28;20053;-70
2023/08/21 09:21:22;;;;;;;6.55;5.78;;;;;;;;;;4937997;29;20052;-70
2023/08/21 09:23:51;;;;;;;6.75;5.57;;;;;;;;;;4928955;29;20059;-70
2023/08/21 09:26:22;;;;;;;6.03;5.53;;;;;;;;;;4925382;28;20134;-70
2023/08/21 09:28:50;;;;;;;5.50;5.10;;;;;;;;;;4941717;28;20047;-71
2023/08/21 09:31:29;;;;;;;4.95;4.60;;;;;;;;;;4928356;29;20047;-70
2023/08/21 09:33:59;;;;;;;5.43;5.03;;;;;;;;;;4907142;29;20047;-70
2023/08/21 09:36:27;;;;;;;5.72;5.10;;;;;;;;;;4928237;28;20051;-70
2023/08/21 09:38:55;;;;;;;5.72;5.22;;;;;;;;;;4937179;29;20382;-70
2023/08/21 09:41:23;;;;;;;9.52;5.25;;;;;;;;;;4936376;29;20047;-70
2023/08/21 09:43:51;;;;;;;5.53;4.97;;;;;;;;;;4932789;28;20054;-70
2023/08/21 09:46:25;;;;;;;5.38;4.97;;;;;;;;;;4908177;29;20052;-71
2023/08/21 09:48:54;;;;;;;5.65;5.22;;;;;;;;;;4951254;28;20054;-71
2023/08/21 09:51:22;;;;;;;6.10;5.53;;;;;;;;;;4938585;29;20082;-72
2023/08/21 09:53:50;;;;;;;6.88;5.18;;;;;;;;;;4926889;28;20480;-70
2023/08/21 09:56:19;;;;;;;5.82;5.10;;;;;;;;;;4926618;28;20122;-70
2023/08/21 09:58:49;;;;;;;6.03;5.53;;;;;;;;;;4946388;28;20051;-71
2023/08/21 10:01:18;;;;;;;5.50;5.10;;;;;;;;;;4921472;29;20138;-70
2023/08/21 10:03:47;;;;;;;5.65;4.97;;;;;;;;;;4926678;29;20051;-70
2023/08/21 10:06:20;;;;;;;5.97;5.47;;;;;;;;;;4926985;29;20133;-70
2023/08/21 10:08:53;;;;;;;7.25;5.45;;;;;;;;;;4942632;28;20142;-70
2023/08/21 10:11:21;;;;;;;5.30;4.90;;;;;;;;;;4937654;28;20563;-71
2023/08/21 10:13:51;;;;;;;6.07;5.53;;;;;;;;;;4938932;28;20142;-70
2023/08/21 10:16:20;;;;;;;7.45;6.00;;;;;;;;;;4922222;29;20043;-70
2023/08/21 10:18:48;;;;;;;5.65;5.15;;;;;;;;;;4923434;29;20069;-70
2023/08/21 10:21:25;;;;;;;5.55;5.18;;;;;;;;;;4927321;29;20039;-71
2023/08/21 10:23:56;;;;;;;5.75;4.75;;;;;;;;;;4938566;28;20075;-72
2023/08/21 10:26:26;;;;;;;5.22;4.93;;;;;;;;;;4923445;29;20055;-73
2023/08/21 10:29:02;;;;;;;5.80;5.30;;;;;;;;;;4939348;29;20054;-70
2023/08/21 10:31:40;;;;;;;5.90;5.30;;;;;;;;;;4937122;28;20052;-69
2023/08/21 10:34:14;;;;;;;5.72;5.22;;;;;;;;;;4938656;29;20047;-70
2023/08/21 10:36:42;;;;;;;6.20;5.60;;;;;;;;;;4925458;29;20051;-70
2023/08/21 10:39:19;;;;;;;7.72;5.65;;;;;;;;;;4949163;28;20051;-71
2023/08/21 10:41:57;;;;;;;8.68;5.18;;;;;;;;;;4949001;28;20050;-71
2023/08/21 10:44:38;;;;;;;5.53;5.05;;;;;;;;;;4910469;29;20047;-71
2023/08/21 10:47:16;;;;;;;5.47;4.97;;;;;;;;;;4942577;29;20402;-71
2023/08/21 10:49:48;;;;;;;5.95;5.55;;;;;;;;;;4927258;29;20062;-70
2023/08/21 10:52:26;;;;;;;6.60;5.25;;;;;;;;;;4919441;29;20145;-70
2023/08/21 10:54:55;;;;;;;6.07;5.13;;;;;;;;;;4931701;29;20417;-71
2023/08/21 10:57:27;;;;;;;5.30;4.90;;;;;;;;;;4933532;29;20055;-70
2023/08/21 10:59:55;;;;;;;5.72;5.20;;;;;;;;;;4944718;29;20043;-70
2023/08/21 11:02:23;;;;;;;8.88;5.53;;;;;;;;;;4913898;29;20574;-71
2023/08/21 11:04:51;;;;;;;5.63;4.82;;;;;;;;;;4936454;29;20133;-70
2023/08/21 11:07:19;;;;;;;4.57;4.28;;;;;;;;;;4950081;28;20047;-71
2023/08/21 11:09:47;;;;;;;5.20;4.80;;;;;;;;;;4954995;28;20055;-70
2023/08/21 11:12:19;;;;;;;4.28;3.90;;;;;;;;;;4950814;28;20054;-70
2023/08/21 11:14:46;;;;;;;4.25;3.95;;;;;;;;;;4966358;28;20498;-71
2023/08/21 11:17:14;;;;;;;4.10;3.70;;;;;;;;;;4940477;29;20113;-71
2023/08/21 11:19:43;;;;;;;3.83;3.53;;;;;;;;;;4922607;28;20581;-72
2023/08/21 11:22:11;;;;;;;3.80;3.50;;;;;;;;;;4934017;29;20051;-71
2023/08/21 11:24:40;;;;;;;3.97;3.60;;;;;;;;;;4946586;29;20051;-71
2023/08/21 11:27:12;;;;;;;4.60;4.10;;;;;;;;;;4943657;28;20051;-72
2023/08/21 11:29:41;;;;;;;3.83;3.53;;;;;;;;;;4949108;29;20059;-69
2023/08/21 11:32:15;;;;;;;4.00;3.80;;;;;;;;;;4948259;28;20590;-69
2023/08/21 11:34:47;;;;;;;4.63;3.45;;;;;;;;;;4966446;28;20227;-69
2023/08/21 11:37:17;;;;;;;3.42;3.20;;;;;;;;;;4934866;29;20054;-69
2023/08/21 11:39:47;;;;;;;3.65;3.35;;;;;;;;;;4928493;29;20047;-70
2023/08/21 11:42:15;;;;;;;3.28;3.08;;;;;;;;;;4939777;29;20482;-71
2023/08/21 11:44:47;;;;;;;3.92;3.10;;;;;;;;;;4933952;29;20497;-70
2023/08/21 11:47:16;;;;;;;3.58;3.28;;;;;;;;;;4936207;29;20114;-70
2023/08/21 11:49:44;;;;;;;3.70;3.40;;;;;;;;;;4934715;29;20055;-70
2023/08/21 11:52:12;;;;;;;3.30;3.10;;;;;;;;;;4937718;29;20070;-70
2023/08/21 11:54:41;;;;;;;3.30;3.00;;;;;;;;;;4936799;29;20059;-70
2023/08/21 11:57:09;;;;;;;3.60;3.30;;;;;;;;;;4932124;29;20138;-69
2023/08/21 11:59:37;;;;;;;3.38;3.17;;;;;;;;;;4937550;29;20059;-70
2023/08/21 12:02:15;;;;;;;3.45;3.15;;;;;;;;;;4940393;29;20181;-71
2023/08/21 12:04:43;;;;;;;3.28;3.08;;;;;;;;;;4940606;29;20101;-70
2023/08/21 12:07:11;;;;;;;4.10;2.95;;;;;;;;;;4934057;29;20710;-70
2023/08/21 12:09:39;;;;;;;4.72;2.83;;;;;;;;;;4932584;29;20054;-70
2023/08/21 12:12:07;;;;;;;2.95;2.75;;;;;;;;;;4931510;28;20058;-70
2023/08/21 12:14:39;;;;;;;2.80;2.60;;;;;;;;;;4940082;29;20058;-71
2023/08/21 12:17:07;;;;;;;2.88;2.60;;;;;;;;;;4925158;29;20051;-70
2023/08/21 12:19:34;;;;;;;3.10;2.90;;;;;;;;;;4925930;29;20513;-70
2023/08/21 12:22:02;;;;;;;2.97;2.65;;;;;;;;;;4924435;28;20075;-71
2023/08/21 12:24:30;;;;;;;3.55;2.58;;;;;;;;;;4935291;29;20138;-70
2023/08/21 12:26:57;;;;;;;3.53;2.50;;;;;;;;;;4945135;29;20054;-71
2023/08/21 12:29:25;;;;;;;2.92;2.72;;;;;;;;;;4942904;28;20066;-70
2023/08/21 12:31:53;;;;;;;2.20;2.10;;;;;;;;;;4937553;29;20073;-70
2023/08/21 12:34:20;;;;;;;2.95;2.70;;;;;;;;;;4936243;29;20399;-70
2023/08/21 12:36:50;;;;;;;3.25;2.80;;;;;;;;;;4932905;29;20589;-71
2023/08/21 12:39:18;;;;;;;2.78;2.60;;;;;;;;;;4921194;29;20043;-72
2023/08/21 12:41:46;;;;;;;2.35;2.25;;;;;;;;;;4935915;29;20098;-70
2023/08/21 12:44:14;;;;;;;2.70;2.60;;;;;;;;;;4921767;29;20039;-71
2023/08/21 12:46:42;;;;;;;2.30;2.20;;;;;;;;;;4912155;29;20134;-71
2023/08/21 12:49:10;;;;;;;3.28;2.40;;;;;;;;;;4942319;28;20132;-71
2023/08/21 12:51:38;;;;;;;2.55;2.40;;;;;;;;;;4937101;28;20073;-71
2023/08/21 12:54:06;;;;;;;2.65;2.40;;;;;;;;;;4946613;28;20068;-71
2023/08/21 12:56:34;;;;;;;2.47;2.28;;;;;;;;;;4943240;29;20105;-71
2023/08/21 12:59:02;;;;;;;2.85;2.65;;;;;;;;;;4947160;28;20505;-71
2023/08/21 13:01:31;;;;;;;3.67;2.30;;;;;;;;;;4929457;29;20138;-70
2023/08/21 13:03:59;;;;;;;2.47;2.30;;;;;;;;;;4933057;29;20058;-71
2023/08/21 13:06:27;;;;;;;2.40;2.20;;;;;;;;;;4936027;28;20118;-71
2023/08/21 13:08:54;;;;;;;2.72;2.53;;;;;;;;;;4941896;29;20047;-71
2023/08/21 13:11:25;;;;;;;3.50;2.40;;;;;;;;;;4936822;28;20052;-70
2023/08/21 13:13:52;;;;;;;2.50;2.30;;;;;;;;;;4944680;29;20055;-71
2023/08/21 13:16:20;;;;;;;2.30;2.20;;;;;;;;;;4925357;29;20047;-71
2023/08/21 13:18:48;;;;;;;2.17;1.98;;;;;;;;;;4944815;28;20067;-71
2023/08/21 13:21:18;;;;;;;;;;;;;;;;;;4949814;28;20043;-70
2023/08/21 13:23:46;;;;;;;2.47;2.38;;;;;;;;;;4927601;29;20341;-71
2023/08/21 13:26:14;;;;;;;3.83;2.13;;;;;;;;;;4931641;29;20043;-71
2023/08/21 13:28:41;;;;;;;2.47;2.00;;;;;;;;;;4941970;29;20310;-71
2023/08/21 13:31:10;;;;;;;2.65;2.03;;;;;;;;;;4933527;29;20062;-70
2023/08/21 13:33:45;;;;;;;2.65;2.30;;;;;;;;;;4936026;28;20059;-70
2023/08/21 13:36:16;;;;;;;3.10;1.98;;;;;;;;;;4925658;29;20043;-69
2023/08/21 13:38:44;;;;;;;4.88;1.90;;;;;;;;;;4926260;29;20081;-70
2023/08/21 13:41:12;;;;;;;2.30;2.10;;;;;;;;;;4935092;29;20047;-71
2023/08/21 13:43:40;;;;;;;2.00;1.80;;;;;;;;;;4930205;29;20066;-70
2023/08/21 13:46:13;;;;;;;1.92;1.83;;;;;;;;;;4946274;28;20039;-71
2023/08/21 13:48:41;;;;;;;1.95;1.85;;;;;;;;;;4945229;29;20047;-71
2023/08/21 13:51:09;;;;;;;2.53;2.10;;;;;;;;;;4940260;28;20287;-70
2023/08/21 13:53:36;;;;;;;2.53;1.90;;;;;;;;;;4929657;29;20127;-71
2023/08/21 13:56:05;;;;;;;2.10;1.77;;;;;;;;;;4915425;29;20581;-71
2023/08/21 13:58:32;;;;;;;2.17;1.73;;;;;;;;;;4925848;29;20059;-71
2023/08/21 14:01:03;;;;;;;4.43;1.90;;;;;;;;;;4903486;29;20079;-70
2023/08/21 14:03:31;;;;;;;2.10;2.00;;;;;;;;;;4915991;29;20152;-71
2023/08/21 14:05:58;;;;;;;1.98;1.88;;;;;;;;;;4932367;29;20047;-71
2023/08/21 14:08:26;;;;;;;2.15;1.95;;;;;;;;;;4945445;29;20049;-70
2023/08/21 14:10:54;;;;;;;1.98;1.85;;;;;;;;;;4919329;29;20051;-70
2023/08/21 14:13:22;;;;;;;2.38;2.17;;;;;;;;;;4918697;29;20130;-71
2023/08/21 14:15:49;;;;;;;2.08;1.80;;;;;;;;;;4926256;29;20686;-71
2023/08/21 14:18:17;;;;;;;2.20;2.00;;;;;;;;;;4938772;29;20043;-71
2023/08/21 14:20:44;;;;;;;2.47;2.05;;;;;;;;;;4927767;29;20513;-71
2023/08/21 14:23:12;;;;;;;3.88;1.90;;;;;;;;;;4923431;29;20051;-70
2023/08/21 14:25:40;;;;;;;2.22;2.03;;;;;;;;;;4939891;28;20060;-71
2023/08/21 14:28:07;;;;;;;1.88;1.80;;;;;;;;;;4906597;29;20044;-71
2023/08/21 14:30:35;;;;;;;2.00;1.85;;;;;;;;;;4930757;28;20626;-71
2023/08/21 14:33:03;;;;;;;2.15;2.00;;;;;;;;;;4926896;29;20058;-70
2023/08/21 14:35:31;;;;;;;3.53;2.13;;;;;;;;;;4924931;29;20058;-70
2023/08/21 14:37:59;;;;;;;2.42;2.00;;;;;;;;;;4913243;29;20048;-70
2023/08/21 14:40:26;;;;;;;3.08;1.85;;;;;;;;;;4935189;29;20051;-71
2023/08/21 14:42:54;;;;;;;2.58;2.10;;;;;;;;;;4923752;29;20494;-71
2023/08/21 14:45:22;;;;;;;2.10;1.90;;;;;;;;;;4944716;28;20051;-70
2023/08/21 14:47:49;;;;;;;2.40;2.25;;;;;;;;;;4939906;29;20545;-70
2023/08/21 14:50:17;;;;;;;3.00;2.13;;;;;;;;;;4941935;28;20047;-70